HKJKHTDO

Guest
Details From HKJK - Nairobi Jomo Kanyatta Intl
To HTDO - DODOMA
Flight Number -
Tags generated
Created
Modified
Stats Distance 303 nm / 561 km
Max Altitude 34,000 ft / 10,363 m
Waypoints 6
Social Downloads 0
Likes 0
Share VATSIM

Download

Looking for another format? Having issues loading an existing format? Contact us
Advertisement - Login to hide

Notes

Basic altitude profile: - Ascent Rate: 2500ft/min - Ascent Speed: 250kts - Cruise Altitude: 35000ft - Cruise Speed: 420kts - Descent Rate: 1500ft/min - Descent Speed: 250kts Options: - Use NATs: yes - Use PACOTS: yes - Use low airways: yes - Use high airways: yes

Route

HKJK EVATO UA405 LOSIN UR409 ITSOK HTDO

ID Type Via Altitude Latitude Longitude Leg Dist Tot Dist Heading (true) Name
O HKJK APT - 0 ft / 0 m -1.31707˚ 36.93076˚ - 0 nm - Nairobi Jomo Kanyatta Intl
EVATO FIX - 24,800 ft / 7,559 m -2.37865˚ 36.46605˚ 69 nm 69 nm 204° / 204° -
LOSIN FIX UA405 (AWY-HI) 34,000 ft / 10,363 m -3.13330˚ 36.12215˚ 49 nm 119 nm 204° / 204° -
AVETA FIX UR409 (AWY-HI) 32,200 ft / 9,815 m -3.68048˚ 36.05437˚ 33 nm 152 nm 187° / 187° -
ITSOK FIX UR409 (AWY-HI) 24,500 ft / 7,468 m -4.48235˚ 35.95576˚ 48 nm 201 nm 187° / 187° -
O HTDO APT - 0 ft / 0 m -6.17043˚ 35.75258˚ 102 nm 303 nm 187° / 187° DODOMA

Altitude Profile

Advertisement - Login to hide

Weather


0- 5 10 15 20 25 30 35+ Temperature / ° C

Clouds and Precipitation
Forecast for 2017-12-16 12:00 UTC. Updated 28 minutes ago

Ground ~20,000 ft ~40,000 ft Winds

HKJK

Details ICAO HKJK (NBO)
Name Nairobi Jomo Kanyatta Intl
Region Kenya
Timezone Africa/Nairobi (UTC+3.0)
Stats Elevation 5,330 ft / 1,625 m (AMSL)
Location -1.317073° 36.930757°
Runways 1
Magnetic Variation 0.576° E

METAR

HKJK 160930Z 06012KT 9999 FEW028 26/12 Q1020

Decode

TAF

TAF TAF HKJK 160500Z 1606/1712 04010KT 9999 FEW025 BECMG 1620/1623 33005KT FEW020 TEMPO 1700/1706 03005KT CAVOK BECMG 1708/1711 06010KT 9999 FEW025

Decode

Departure Runways

ID Width Length Bearing (true) Bearing (mag) Surface Threshold Offset Overrun Length
06 148 ft / 45 m 13,215 ft / 4,028 m 53.90° 53.32° Asphalt 0 ft / 0 m 194 ft / 59 m
24 148 ft / 45 m 13,215 ft / 4,028 m 233.90° 233.32° Asphalt 0 ft / 0 m 197 ft / 60 m

HTDO

Details ICAO HTDO (DOD)
Name DODOMA
Region Tanzania
Timezone Africa/Dar_es_Salaam (UTC+3.0)
Stats Elevation 3,637 ft / 1,109 m (AMSL)
Location -6.170434° 35.752577°
Runways 1
Magnetic Variation 0.931° W

METAR

HTDO 160900Z 12008KT 9999 FEW030 30/14 Q1017 NOSIG

Decode

TAF

TAF HTDO 160500Z 1606/1706 09010KT 9999 FEW024

Decode

Destination Runways

ID Width Length Bearing (true) Bearing (mag) Surface Threshold Offset Overrun Length
10 98 ft / 30 m 6,415 ft / 1,955 m 91.55° 92.48° Asphalt 0 ft / 0 m 0 ft / 0 m
28 98 ft / 30 m 6,415 ft / 1,955 m 271.55° 272.48° Asphalt 328 ft / 100 m 0 ft / 0 m

Popular Alternatives